createdAt,value
2023-04-27T00:00:29.564Z,10.26
2023-04-27T00:03:18.119Z,10.10
2023-04-27T00:06:06.298Z,10.10
2023-04-27T00:08:54.020Z,9.88
2023-04-27T00:11:42.073Z,10.07
2023-04-27T00:14:29.848Z,10.08
2023-04-27T00:17:17.596Z,10.06
2023-04-27T00:20:06.436Z,10.02
2023-04-27T00:22:54.156Z,9.77
2023-04-27T00:25:41.959Z,9.92
2023-04-27T00:28:29.592Z,9.89
2023-04-27T00:31:19.583Z,9.92
2023-04-27T00:34:07.355Z,9.69
2023-04-27T00:36:55.027Z,9.86
2023-04-27T00:39:42.657Z,9.79
2023-04-27T00:42:30.375Z,9.78
2023-04-27T00:45:18.125Z,9.79
2023-04-27T00:48:06.145Z,9.75
2023-04-27T00:50:55.067Z,9.73
2023-04-27T00:53:43.647Z,9.66
2023-04-27T00:56:32.207Z,9.53
2023-04-27T00:59:20.665Z,9.62
2023-04-27T01:02:09.925Z,9.64
2023-04-27T01:04:58.081Z,9.55
2023-04-27T01:07:45.784Z,9.48
2023-04-27T01:10:33.589Z,9.37
2023-04-27T01:13:21.572Z,9.42
2023-04-27T01:16:09.424Z,9.43
2023-04-27T01:19:00.074Z,9.49
2023-04-27T01:21:47.841Z,9.22
2023-04-27T01:24:35.824Z,9.26
2023-04-27T01:27:25.955Z,9.28
2023-04-27T01:30:13.810Z,9.01
2023-04-27T01:33:01.653Z,9.16
2023-04-27T01:35:49.402Z,8.89
2023-04-27T01:38:37.756Z,8.87
2023-04-27T01:41:25.598Z,8.51
2023-04-27T01:44:13.319Z,8.92
2023-04-27T01:47:01.022Z,8.82
2023-04-27T01:49:48.657Z,8.79
2023-04-27T01:52:36.563Z,8.59
2023-04-27T01:55:24.285Z,8.69
2023-04-27T01:58:11.950Z,8.67
2023-04-27T02:01:01.328Z,8.60
2023-04-27T02:03:53.021Z,8.53
2023-04-27T02:06:42.413Z,8.57
2023-04-27T02:09:30.009Z,8.51
2023-04-27T02:12:19.028Z,8.49
2023-04-27T02:15:08.899Z,8.50
2023-04-27T02:17:57.578Z,8.43
2023-04-27T02:20:45.303Z,8.55
2023-04-27T02:23:33.133Z,8.55
2023-04-27T02:26:22.460Z,8.53
2023-04-27T02:29:10.156Z,8.58
2023-04-27T02:31:58.679Z,8.60
2023-04-27T02:34:46.663Z,8.57
2023-04-27T02:37:34.977Z,8.49
2023-04-27T02:40:22.810Z,8.46
2023-04-27T02:43:10.923Z,8.53
2023-04-27T02:46:05.967Z,8.61
2023-04-27T02:48:53.775Z,8.49
2023-04-27T02:51:41.505Z,8.63
2023-04-27T02:54:31.266Z,8.64
2023-04-27T02:57:19.006Z,8.66
2023-04-27T03:00:09.850Z,8.43
2023-04-27T03:02:58.087Z,8.52
2023-04-27T03:05:47.232Z,8.51
2023-04-27T03:08:35.648Z,8.42
2023-04-27T03:11:23.348Z,8.40
2023-04-27T03:14:12.886Z,8.14
2023-04-27T03:17:01.131Z,8.31
2023-04-27T03:19:51.876Z,8.13
2023-04-27T03:22:39.805Z,7.99
2023-04-27T03:25:27.607Z,8.00
2023-04-27T03:28:15.456Z,7.87
2023-04-27T03:31:07.834Z,7.83
2023-04-27T03:33:55.936Z,7.75
2023-04-27T03:36:46.113Z,7.50
2023-04-27T03:39:33.835Z,7.71
2023-04-27T03:42:21.607Z,7.77
2023-04-27T03:45:10.642Z,7.55
2023-04-27T03:47:59.230Z,7.53
2023-04-27T03:50:47.271Z,7.64
2023-04-27T03:53:39.049Z,7.51
2023-04-27T03:56:28.246Z,7.61
2023-04-27T03:59:16.977Z,7.67
2023-04-27T04:02:09.971Z,7.69
2023-04-27T04:04:57.943Z,7.77
2023-04-27T04:07:45.798Z,7.85
2023-04-27T04:10:33.645Z,7.92
2023-04-27T04:13:21.396Z,8.12
2023-04-27T04:16:10.141Z,8.03
2023-04-27T04:18:57.782Z,8.28
2023-04-27T04:21:45.670Z,8.15
2023-04-27T04:24:33.371Z,8.07
2023-04-27T04:27:21.651Z,8.25
2023-04-27T04:30:09.712Z,8.27
2023-04-27T04:32:58.147Z,8.48
2023-04-27T04:35:46.546Z,8.50
2023-04-27T04:38:35.247Z,8.40
2023-04-27T04:41:24.119Z,8.49
2023-04-27T04:44:11.948Z,8.63
2023-04-27T04:46:59.698Z,8.55
2023-04-27T04:49:47.399Z,8.62
2023-04-27T04:52:35.208Z,8.73
2023-04-27T04:55:22.979Z,8.89
2023-04-27T04:58:10.983Z,8.95
2023-04-27T05:00:58.732Z,8.88
2023-04-27T05:03:47.773Z,9.05
2023-04-27T05:06:35.609Z,8.79
2023-04-27T05:09:23.342Z,9.04
2023-04-27T05:12:11.105Z,9.00
2023-04-27T05:14:58.875Z,9.00
2023-04-27T05:17:46.633Z,9.04
2023-04-27T05:20:37.946Z,9.27
2023-04-27T05:23:26.013Z,9.58
2023-04-27T05:26:36.121Z,9.75
2023-04-27T05:29:35.831Z,9.56
2023-04-27T05:32:23.637Z,9.65
2023-04-27T05:35:11.661Z,9.81
2023-04-27T05:37:59.500Z,9.65
2023-04-27T05:40:47.115Z,9.94
2023-04-27T05:43:35.491Z,10.10
2023-04-27T05:46:23.324Z,10.49
2023-04-27T05:49:11.145Z,10.67
2023-04-27T05:51:59.279Z,10.99
2023-04-27T05:54:50.564Z,11.03
2023-04-27T05:57:38.221Z,11.20
2023-04-27T06:00:26.141Z,11.00
2023-04-27T06:03:13.957Z,10.85
2023-04-27T06:06:02.971Z,11.23
2023-04-27T06:08:50.773Z,11.20
2023-04-27T06:11:38.362Z,11.59
2023-04-27T06:14:26.222Z,11.68
2023-04-27T06:17:13.858Z,10.95
2023-04-27T06:20:01.480Z,11.64
2023-04-27T06:22:49.253Z,11.60
2023-04-27T06:25:39.051Z,11.99
2023-04-27T06:28:27.030Z,12.20
2023-04-27T06:31:14.796Z,11.98
2023-04-27T06:34:02.706Z,12.76
2023-04-27T06:36:50.401Z,12.65
2023-04-27T06:39:39.547Z,12.89
2023-04-27T06:42:27.609Z,12.93
2023-04-27T06:45:15.398Z,13.08
2023-04-27T06:48:03.133Z,13.65
2023-04-27T06:50:51.194Z,13.34
2023-04-27T06:53:42.076Z,13.17
2023-04-27T06:56:29.863Z,13.26
2023-04-27T06:59:18.627Z,13.66
2023-04-27T07:02:07.674Z,13.87
2023-04-27T07:04:55.391Z,13.70
2023-04-27T07:07:43.066Z,14.12
2023-04-27T07:10:32.827Z,14.20
2023-04-27T07:13:20.554Z,14.29
2023-04-27T07:16:08.582Z,14.14
2023-04-27T07:18:56.435Z,14.04
2023-04-27T07:21:44.133Z,14.22
2023-04-27T07:24:31.889Z,14.27
2023-04-27T07:27:20.661Z,14.87
2023-04-27T07:30:10.209Z,15.09
2023-04-27T07:32:58.223Z,14.64
2023-04-27T07:35:45.960Z,14.64
2023-04-27T07:38:33.898Z,14.61
2023-04-27T07:41:23.824Z,14.02
2023-04-27T07:44:12.570Z,14.25
2023-04-27T07:47:00.246Z,14.54
2023-04-27T07:49:48.337Z,14.65
2023-04-27T07:52:36.341Z,14.61
2023-04-27T07:55:25.058Z,14.97
2023-04-27T07:58:13.436Z,15.19
2023-04-27T08:01:01.426Z,14.63
2023-04-27T08:03:49.321Z,14.89
2023-04-27T08:06:38.199Z,15.43
2023-04-27T08:09:27.097Z,15.67
2023-04-27T08:12:14.781Z,15.75
2023-04-27T08:15:02.619Z,16.10
2023-04-27T08:17:50.295Z,16.47
2023-04-27T08:20:37.926Z,16.10
2023-04-27T08:23:28.673Z,16.66
2023-04-27T08:26:16.847Z,16.50
2023-04-27T08:29:15.441Z,16.54
2023-04-27T08:32:11.766Z,16.06
2023-04-27T08:34:59.451Z,16.63
2023-04-27T08:37:47.043Z,16.11
2023-04-27T08:40:34.725Z,16.06
2023-04-27T08:43:22.346Z,16.01
2023-04-27T08:46:10.226Z,16.69
2023-04-27T08:48:57.894Z,15.70
2023-04-27T08:51:45.678Z,15.39
2023-04-27T08:54:33.853Z,15.61
2023-04-27T08:57:21.587Z,15.38
2023-04-27T09:00:13.514Z,15.73
2023-04-27T09:03:04.398Z,15.98
2023-04-27T09:06:03.764Z,15.48
2023-04-27T09:08:53.102Z,15.80
2023-04-27T09:11:41.084Z,15.79
2023-04-27T09:14:28.863Z,16.00
2023-04-27T09:17:16.764Z,16.05
2023-04-27T09:20:09.386Z,16.35
2023-04-27T09:22:58.739Z,15.72
2023-04-27T09:25:46.545Z,15.96
2023-04-27T09:28:38.017Z,16.12
2023-04-27T09:31:33.246Z,16.14
2023-04-27T09:34:21.087Z,17.03
2023-04-27T09:37:10.638Z,18.14
2023-04-27T09:39:58.557Z,17.21
2023-04-27T09:42:46.919Z,16.82
2023-04-27T09:45:34.707Z,16.51
2023-04-27T09:48:23.947Z,16.60
2023-04-27T09:51:11.630Z,16.54
2023-04-27T09:54:03.201Z,16.62
2023-04-27T09:57:10.090Z,16.34
2023-04-27T10:00:11.251Z,16.35
2023-04-27T10:03:10.822Z,16.12
2023-04-27T10:06:16.666Z,15.78
2023-04-27T10:09:06.826Z,16.02
2023-04-27T10:11:55.497Z,16.49
2023-04-27T10:15:12.065Z,16.70
2023-04-27T10:18:05.549Z,16.54
2023-04-27T10:20:53.270Z,16.96
2023-04-27T10:23:49.021Z,17.48
2023-04-27T10:26:38.032Z,17.21
2023-04-27T10:29:36.997Z,16.53
2023-04-27T10:32:26.778Z,17.43
2023-04-27T10:35:14.672Z,18.05
2023-04-27T10:38:23.834Z,18.28
2023-04-27T10:41:14.937Z,19.00
2023-04-27T10:44:17.314Z,18.76
2023-04-27T10:47:16.762Z,18.77
2023-04-27T10:50:06.241Z,18.58
2023-04-27T10:52:53.947Z,18.49
2023-04-27T10:55:41.866Z,18.86
2023-04-27T10:58:37.759Z,19.50
2023-04-27T11:01:32.912Z,19.55
2023-04-27T11:04:20.907Z,19.52
2023-04-27T11:07:10.450Z,18.82
2023-04-27T11:09:58.065Z,17.86
2023-04-27T11:12:46.453Z,18.58
2023-04-27T11:15:54.610Z,19.23
2023-04-27T11:18:42.890Z,20.62
2023-04-27T11:21:32.474Z,21.05
2023-04-27T11:24:20.109Z,20.14
2023-04-27T11:27:07.801Z,19.46
2023-04-27T11:29:55.523Z,18.20
2023-04-27T11:32:43.286Z,17.95
2023-04-27T11:35:37.622Z,17.59
2023-04-27T11:38:26.313Z,16.97
2023-04-27T11:41:16.354Z,16.73
2023-04-27T11:44:08.441Z,17.23
2023-04-27T11:46:56.382Z,17.66
2023-04-27T11:49:48.547Z,18.66
2023-04-27T11:52:37.144Z,19.41
2023-04-27T11:55:25.015Z,18.12
2023-04-27T11:58:21.440Z,17.46
2023-04-27T12:01:09.652Z,16.91
2023-04-27T12:04:00.014Z,16.69
2023-04-27T12:06:54.561Z,16.42
2023-04-27T12:09:42.502Z,16.46
2023-04-27T12:12:30.178Z,16.56
2023-04-27T12:15:17.980Z,16.34
2023-04-27T12:18:06.593Z,16.30
2023-04-27T12:20:54.342Z,15.89
2023-04-27T12:23:42.399Z,15.98
2023-04-27T12:26:30.185Z,15.63
2023-04-27T12:29:18.276Z,15.63
2023-04-27T12:32:06.400Z,16.13
2023-04-27T12:34:54.078Z,16.43
2023-04-27T12:37:42.297Z,16.17
2023-04-27T12:40:48.586Z,16.42
2023-04-27T12:43:37.730Z,16.75
2023-04-27T12:46:25.511Z,16.73
2023-04-27T12:49:13.208Z,16.62
2023-04-27T12:52:03.208Z,16.58
2023-04-27T12:54:57.778Z,16.55
2023-04-27T12:57:45.426Z,16.60
2023-04-27T13:00:34.462Z,16.36
2023-04-27T13:03:22.309Z,16.47
2023-04-27T13:06:10.908Z,16.57
2023-04-27T13:08:59.700Z,16.45
2023-04-27T13:11:47.682Z,16.54
2023-04-27T13:14:35.645Z,16.46
2023-04-27T13:17:23.305Z,16.60
2023-04-27T13:20:11.691Z,16.37
2023-04-27T13:22:59.488Z,16.69
2023-04-27T13:25:47.191Z,16.67
2023-04-27T13:28:34.934Z,16.40
2023-04-27T13:31:33.082Z,16.41
2023-04-27T13:34:24.739Z,16.31
2023-04-27T13:37:12.553Z,16.38
2023-04-27T13:40:00.171Z,16.18
2023-04-27T13:42:47.914Z,16.09
2023-04-27T13:45:35.607Z,16.29
2023-04-27T13:48:23.296Z,16.40
2023-04-27T13:51:11.170Z,15.95
2023-04-27T13:53:58.959Z,15.63
2023-04-27T13:56:46.629Z,15.76
2023-04-27T13:59:34.356Z,15.95
2023-04-27T14:02:22.352Z,15.85
2023-04-27T14:05:10.644Z,16.05
2023-04-27T14:07:58.483Z,15.98
2023-04-27T14:10:46.604Z,15.88
2023-04-27T14:13:34.315Z,15.84
2023-04-27T14:16:22.228Z,15.92
2023-04-27T14:19:10.738Z,15.93
2023-04-27T14:21:59.445Z,15.94
2023-04-27T14:24:47.114Z,15.89
2023-04-27T14:27:34.735Z,16.06
2023-04-27T14:30:23.141Z,15.94
2023-04-27T14:33:11.018Z,15.67
2023-04-27T14:35:58.766Z,15.84
2023-04-27T14:38:46.630Z,16.22
2023-04-27T14:41:35.819Z,16.27
2023-04-27T14:44:24.404Z,16.28
2023-04-27T14:47:12.077Z,16.38
2023-04-27T14:49:59.858Z,16.11
2023-04-27T14:52:48.684Z,15.95
2023-04-27T14:55:36.876Z,15.71
2023-04-27T14:58:24.602Z,15.85
2023-04-27T15:01:12.459Z,15.57
2023-04-27T15:04:00.251Z,15.35
2023-04-27T15:06:48.119Z,15.23
2023-04-27T15:09:35.864Z,15.05
2023-04-27T15:12:23.857Z,14.73
2023-04-27T15:15:13.216Z,14.71
2023-04-27T15:18:01.609Z,14.70
2023-04-27T15:20:56.708Z,14.54
2023-04-27T15:23:44.459Z,14.49
2023-04-27T15:26:32.091Z,14.40
2023-04-27T15:29:19.944Z,14.51
2023-04-27T15:32:09.757Z,14.66
2023-04-27T15:34:58.372Z,14.51
2023-04-27T15:37:46.254Z,14.57
2023-04-27T15:40:34.840Z,14.37
2023-04-27T15:43:22.623Z,14.08
2023-04-27T15:46:15.185Z,14.22
2023-04-27T15:49:02.978Z,13.90
2023-04-27T15:51:51.453Z,13.75
2023-04-27T15:54:39.199Z,13.84
2023-04-27T15:57:26.909Z,13.76
2023-04-27T16:00:16.682Z,13.62
2023-04-27T16:03:04.840Z,13.69
2023-04-27T16:05:52.983Z,13.64
2023-04-27T16:08:40.708Z,13.62
2023-04-27T16:11:28.431Z,13.57
2023-04-27T16:14:16.405Z,13.59
2023-04-27T16:17:04.367Z,13.57
2023-04-27T16:19:54.056Z,13.52
2023-04-27T16:22:42.949Z,13.47
2023-04-27T16:25:31.871Z,13.54
2023-04-27T16:28:20.205Z,13.50
2023-04-27T16:31:08.206Z,13.37
2023-04-27T16:33:56.160Z,13.47
2023-04-27T16:36:44.223Z,13.46
2023-04-27T16:39:31.892Z,13.41
2023-04-27T16:42:20.704Z,13.29
2023-04-27T16:45:10.687Z,13.28
2023-04-27T16:47:59.965Z,13.19
2023-04-27T16:50:47.703Z,13.08
2023-04-27T16:53:36.070Z,12.99
2023-04-27T16:56:31.240Z,13.01
2023-04-27T16:59:21.890Z,12.94
2023-04-27T17:02:26.012Z,12.83
2023-04-27T17:05:13.934Z,12.78
2023-04-27T17:08:03.619Z,12.73
2023-04-27T17:10:53.281Z,12.61
2023-04-27T17:13:41.210Z,12.55
2023-04-27T17:16:28.930Z,12.44
2023-04-27T17:19:16.690Z,12.42
2023-04-27T17:22:04.740Z,12.24
2023-04-27T17:24:52.363Z,12.18
2023-04-27T17:27:40.176Z,12.12
2023-04-27T17:30:28.068Z,11.95
2023-04-27T17:33:16.891Z,12.02
2023-04-27T17:36:04.828Z,11.98
2023-04-27T17:38:54.128Z,11.75
2023-04-27T17:41:42.047Z,11.83
2023-04-27T17:44:30.947Z,11.68
2023-04-27T17:47:20.685Z,11.69
2023-04-27T17:50:09.178Z,11.66
2023-04-27T17:52:57.622Z,11.65
2023-04-27T17:55:45.831Z,11.59
2023-04-27T17:58:34.016Z,11.52
2023-04-27T18:01:21.772Z,11.40
2023-04-27T18:04:12.376Z,11.41
2023-04-27T18:07:00.784Z,11.31
2023-04-27T18:09:48.469Z,11.13
2023-04-27T18:12:36.304Z,11.26
2023-04-27T18:15:26.953Z,11.33
2023-04-27T18:18:23.874Z,11.39
2023-04-27T18:21:12.901Z,11.28
2023-04-27T18:24:00.578Z,11.28
2023-04-27T18:26:48.249Z,11.37
2023-04-27T18:29:36.022Z,11.30
2023-04-27T18:32:23.797Z,11.30
2023-04-27T18:35:11.588Z,11.29
2023-04-27T18:37:59.300Z,11.32
2023-04-27T18:40:46.896Z,11.02
2023-04-27T18:43:36.728Z,11.23
2023-04-27T18:46:25.174Z,11.15
2023-04-27T18:49:13.311Z,11.11
2023-04-27T18:52:01.196Z,11.04
2023-04-27T18:54:48.902Z,11.08
2023-04-27T18:57:37.138Z,11.04
2023-04-27T19:00:25.074Z,11.04
2023-04-27T19:03:12.927Z,10.89
2023-04-27T19:06:00.951Z,11.00
2023-04-27T19:08:48.741Z,11.01
2023-04-27T19:11:36.526Z,10.80
2023-04-27T19:14:24.697Z,10.88
2023-04-27T19:17:12.508Z,10.88
2023-04-27T19:20:00.246Z,10.84
2023-04-27T19:22:47.903Z,10.77
2023-04-27T19:25:35.997Z,10.60
2023-04-27T19:28:24.930Z,10.78
2023-04-27T19:31:12.906Z,10.53
2023-04-27T19:34:04.236Z,10.57
2023-04-27T19:36:52.269Z,10.56
2023-04-27T19:39:40.044Z,10.43
2023-04-27T19:42:27.728Z,10.49
2023-04-27T19:45:17.081Z,10.41
2023-04-27T19:48:05.887Z,10.43
2023-04-27T19:50:55.007Z,10.42
2023-04-27T19:53:42.708Z,10.33
2023-04-27T19:56:30.454Z,10.34
2023-04-27T19:59:18.132Z,10.35
2023-04-27T20:02:06.154Z,10.33
2023-04-27T20:04:54.113Z,10.30
2023-04-27T20:07:42.920Z,10.21
2023-04-27T20:10:30.629Z,10.24
2023-04-27T20:13:18.339Z,10.17
2023-04-27T20:16:06.810Z,10.00
2023-04-27T20:18:55.757Z,9.91
2023-04-27T20:21:44.791Z,10.12
2023-04-27T20:24:32.549Z,9.99
2023-04-27T20:27:20.254Z,9.92
2023-04-27T20:30:08.699Z,9.91
2023-04-27T20:32:56.662Z,9.66
2023-04-27T20:35:47.015Z,9.80
2023-04-27T20:38:34.717Z,9.73
2023-04-27T20:41:22.432Z,9.62
2023-04-27T20:44:10.701Z,9.78
2023-04-27T20:46:58.525Z,9.63
2023-04-27T20:49:46.376Z,9.69
2023-04-27T20:52:34.793Z,9.64
2023-04-27T20:55:22.821Z,9.65
2023-04-27T20:58:10.785Z,9.29
2023-04-27T21:00:58.723Z,9.41
2023-04-27T21:03:47.213Z,9.15
2023-04-27T21:06:35.663Z,9.42
2023-04-27T21:09:27.612Z,9.35
2023-04-27T21:12:17.385Z,9.30
2023-04-27T21:15:05.434Z,9.20
2023-04-27T21:17:53.194Z,9.27
2023-04-27T21:20:41.263Z,8.99
2023-04-27T21:23:29.217Z,9.08
2023-04-27T21:26:16.794Z,9.06
2023-04-27T21:29:06.113Z,8.93
2023-04-27T21:31:53.795Z,9.00
2023-04-27T21:34:41.517Z,8.96
2023-04-27T21:37:29.298Z,8.87
2023-04-27T21:40:17.114Z,8.67
2023-04-27T21:43:06.397Z,8.46
2023-04-27T21:45:54.117Z,8.40
2023-04-27T21:48:41.822Z,8.43
2023-04-27T21:51:35.157Z,8.34
2023-04-27T21:54:22.882Z,8.29
2023-04-27T21:57:10.903Z,8.16
2023-04-27T22:00:02.086Z,7.99
2023-04-27T22:02:49.906Z,7.96
2023-04-27T22:05:37.589Z,7.93
2023-04-27T22:08:25.767Z,7.85
2023-04-27T22:11:13.536Z,7.78
2023-04-27T22:14:01.244Z,7.45
2023-04-27T22:16:49.951Z,7.68
2023-04-27T22:19:37.726Z,7.68
2023-04-27T22:22:25.687Z,7.48
2023-04-27T22:25:13.507Z,7.63
2023-04-27T22:28:02.012Z,7.58
2023-04-27T22:30:49.726Z,7.44
2023-04-27T22:33:37.490Z,7.31
2023-04-27T22:36:25.244Z,7.17
2023-04-27T22:39:13.028Z,7.16
2023-04-27T22:42:00.755Z,7.26
2023-04-27T22:44:50.655Z,7.13
2023-04-27T22:47:38.370Z,7.01
2023-04-27T22:50:26.986Z,7.01
2023-04-27T22:53:14.680Z,6.96
2023-04-27T22:56:02.373Z,7.01
2023-04-27T22:58:49.945Z,6.79
2023-04-27T23:01:37.903Z,6.58
2023-04-27T23:04:26.938Z,6.40
2023-04-27T23:07:18.656Z,6.42
2023-04-27T23:10:07.289Z,6.36
2023-04-27T23:12:57.309Z,6.14
2023-04-27T23:15:45.030Z,6.06
2023-04-27T23:18:33.792Z,6.32
2023-04-27T23:21:24.431Z,6.26
2023-04-27T23:24:14.429Z,5.91
2023-04-27T23:27:06.188Z,6.20
2023-04-27T23:29:53.900Z,6.21
2023-04-27T23:32:41.640Z,6.15
2023-04-27T23:35:30.032Z,6.15
2023-04-27T23:38:17.776Z,6.18
2023-04-27T23:41:05.559Z,6.18
2023-04-27T23:43:53.180Z,6.28
2023-04-27T23:46:41.103Z,6.27
2023-04-27T23:49:28.891Z,6.31
2023-04-27T23:52:16.530Z,6.15
2023-04-27T23:55:04.527Z,6.31
2023-04-27T23:57:52.729Z,6.21
